createdAt,value
2022-09-05T00:02:04.733Z,3.45
2022-09-05T00:04:49.175Z,3.25
2022-09-05T00:07:38.824Z,2.90
2022-09-05T00:10:37.550Z,3.00
2022-09-05T00:13:25.002Z,3.05
2022-09-05T00:16:23.629Z,3.40
2022-09-05T00:24:21.632Z,3.25
2022-09-05T00:24:30.071Z,2.88
2022-09-05T00:25:00.933Z,3.15
2022-09-05T00:27:43.638Z,2.80
2022-09-05T00:30:52.338Z,3.15
2022-09-05T00:33:17.484Z,2.97
2022-09-05T00:35:54.030Z,3.13
2022-09-05T00:38:26.244Z,3.58
2022-09-05T00:41:05.922Z,2.83
2022-09-05T00:43:38.313Z,3.03
2022-09-05T00:46:05.431Z,2.85
2022-09-05T00:48:31.654Z,3.20
2022-09-05T00:51:01.555Z,2.50
2022-09-05T00:53:40.618Z,2.78
2022-09-05T00:56:27.669Z,3.05
2022-09-05T00:59:19.975Z,2.90
2022-09-05T01:02:06.540Z,2.65
2022-09-05T01:04:51.573Z,2.65
2022-09-05T01:07:34.968Z,2.72
2022-09-05T01:10:12.025Z,2.58
2022-09-05T01:12:53.330Z,2.67
2022-09-05T01:15:22.324Z,2.88
2022-09-05T01:18:00.387Z,2.90
2022-09-05T01:20:41.016Z,2.83
2022-09-05T01:23:20.683Z,3.00
2022-09-05T01:25:55.379Z,2.80
2022-09-05T01:29:13.716Z,2.97
2022-09-05T01:31:32.440Z,3.10
2022-09-05T01:33:58.798Z,2.83
2022-09-05T01:36:44.112Z,3.20
2022-09-05T01:40:10.526Z,3.40
2022-09-05T01:42:08.268Z,3.08
2022-09-05T01:44:56.655Z,3.17
2022-09-05T01:47:41.086Z,3.58
2022-09-05T01:50:35.026Z,2.90
2022-09-05T01:53:25.461Z,3.42
2022-09-05T01:56:05.908Z,3.17
2022-09-05T01:58:37.287Z,3.42
2022-09-05T02:01:31.846Z,3.25
2022-09-05T02:04:11.094Z,3.33
2022-09-05T02:06:44.847Z,3.38
2022-09-05T02:09:36.872Z,3.05
2022-09-05T02:12:07.008Z,3.35
2022-09-05T02:14:35.994Z,3.17
2022-09-05T02:17:08.136Z,2.92
2022-09-05T02:19:51.926Z,3.20
2022-09-05T02:22:21.303Z,3.17
2022-09-05T02:25:18.026Z,2.92
2022-09-05T02:28:05.529Z,2.83
2022-09-05T02:30:37.217Z,3.10
2022-09-05T02:33:20.593Z,2.83
2022-09-05T02:35:53.072Z,3.28
2022-09-05T02:40:21.941Z,3.10
2022-09-05T02:45:09.702Z,3.13
2022-09-05T02:45:15.041Z,3.20
2022-09-05T02:47:22.453Z,3.30
2022-09-05T02:52:07.423Z,3.22
2022-09-05T02:57:46.050Z,3.55
2022-09-05T02:57:46.120Z,2.90
2022-09-05T02:59:36.126Z,3.78
2022-09-05T03:02:25.611Z,3.00
2022-09-05T03:05:05.094Z,3.03
2022-09-05T03:07:34.346Z,2.90
2022-09-05T03:10:15.118Z,2.90
2022-09-05T03:13:00.315Z,2.93
2022-09-05T03:15:45.160Z,3.17
2022-09-05T03:18:30.091Z,3.25
2022-09-05T03:21:14.743Z,3.05
2022-09-05T03:23:56.112Z,3.10
2022-09-05T03:26:25.092Z,3.05
2022-09-05T03:28:51.298Z,3.13
2022-09-05T03:31:44.475Z,3.05
2022-09-05T03:34:25.869Z,3.60
2022-09-05T03:37:12.415Z,3.38
2022-09-05T03:39:46.097Z,3.40
2022-09-05T03:42:21.451Z,3.10
2022-09-05T03:45:06.555Z,3.50
2022-09-05T03:47:51.536Z,3.17
2022-09-05T03:55:26.047Z,3.35
2022-09-05T03:57:18.471Z,3.42
2022-09-05T03:57:28.164Z,2.90
2022-09-05T03:59:47.058Z,3.47
2022-09-05T04:08:08.564Z,3.38
2022-09-05T04:08:16.454Z,3.42
2022-09-05T04:08:26.112Z,3.35
2022-09-05T04:11:05.804Z,3.50
2022-09-05T04:13:40.850Z,3.30
2022-09-05T04:16:33.229Z,3.53
2022-09-05T04:19:08.654Z,3.20
2022-09-05T04:21:36.364Z,3.15
2022-09-05T04:24:17.613Z,3.28
2022-09-05T04:26:57.051Z,3.33
2022-09-05T04:29:23.257Z,3.08
2022-09-05T04:32:19.245Z,3.47
2022-09-05T04:34:53.590Z,3.53
2022-09-05T04:37:48.159Z,4.00
2022-09-05T04:40:34.253Z,2.80
2022-09-05T04:43:04.019Z,3.83
2022-09-05T04:45:33.653Z,2.97
2022-09-05T04:48:02.869Z,3.58
2022-09-05T04:50:38.089Z,3.83
2022-09-05T04:53:19.014Z,3.38
2022-09-05T04:55:50.729Z,3.33
2022-09-05T04:59:36.273Z,3.85
2022-09-05T05:06:05.152Z,3.40
2022-09-05T05:06:08.915Z,3.60
2022-09-05T05:07:07.749Z,3.85
2022-09-05T05:09:44.926Z,3.50
2022-09-05T05:17:38.295Z,3.60
2022-09-05T05:17:57.331Z,3.40
2022-09-05T05:18:39.682Z,4.00
2022-09-05T05:20:53.380Z,3.72
2022-09-05T05:23:28.855Z,3.70
2022-09-05T05:25:56.993Z,3.33
2022-09-05T05:28:39.148Z,3.50
2022-09-05T05:31:14.464Z,3.83
2022-09-05T05:33:41.261Z,3.53
2022-09-05T05:36:09.333Z,3.83
2022-09-05T05:38:35.590Z,3.70
2022-09-05T05:41:16.264Z,4.10
2022-09-05T05:43:46.533Z,3.40
2022-09-05T05:46:15.785Z,3.70
2022-09-05T05:48:47.003Z,3.40
2022-09-05T05:52:02.457Z,3.38
2022-09-05T05:54:29.458Z,3.10
2022-09-05T05:57:15.115Z,3.35
2022-09-05T05:59:56.317Z,3.60
2022-09-05T06:02:41.546Z,3.58
2022-09-05T06:05:14.865Z,3.05
2022-09-05T06:08:26.205Z,3.22
2022-09-05T06:15:00.722Z,2.97
2022-09-05T06:15:02.810Z,3.47
2022-09-05T06:16:59.094Z,3.30
2022-09-05T06:19:25.406Z,3.00
2022-09-05T06:24:58.720Z,2.60
2022-09-05T06:27:43.897Z,3.10
2022-09-05T06:30:31.344Z,2.50
2022-09-05T06:33:16.607Z,2.60
2022-09-05T06:35:59.112Z,3.40
2022-09-05T06:38:47.119Z,2.60
2022-09-05T06:41:13.450Z,2.53
2022-09-05T06:43:39.682Z,2.65
2022-09-05T06:46:15.623Z,2.55
2022-09-05T06:49:32.182Z,2.33
2022-09-05T06:52:29.564Z,2.45
2022-09-05T06:55:02.345Z,2.60
2022-09-05T06:57:44.349Z,2.60
2022-09-05T07:00:22.634Z,2.58
2022-09-05T07:03:00.112Z,2.45
2022-09-05T07:05:50.204Z,2.60
2022-09-05T07:08:44.226Z,2.50
2022-09-05T07:11:16.931Z,2.72
2022-09-05T07:13:54.693Z,2.55
2022-09-05T07:16:38.367Z,2.45
2022-09-05T07:19:16.371Z,2.20
2022-09-05T07:22:01.803Z,2.10
2022-09-05T07:24:53.408Z,2.65
2022-09-05T07:27:34.419Z,2.20
2022-09-05T07:30:14.052Z,2.30
2022-09-05T07:32:45.338Z,2.55
2022-09-05T07:35:23.500Z,2.35
2022-09-05T07:38:00.182Z,2.03
2022-09-05T07:40:27.837Z,2.20
2022-09-05T07:43:09.255Z,2.30
2022-09-05T07:45:38.349Z,2.40
2022-09-05T07:48:11.934Z,2.30
2022-09-05T07:56:56.435Z,2.38
2022-09-05T07:57:10.575Z,2.40
2022-09-05T07:57:22.203Z,2.10
2022-09-05T07:59:35.831Z,2.20
2022-09-05T08:02:02.354Z,2.15
2022-09-05T08:04:31.013Z,2.17
2022-09-05T08:07:49.878Z,2.22
2022-09-05T08:10:07.014Z,2.17
2022-09-05T08:13:19.991Z,2.50
2022-09-05T08:15:48.030Z,2.00
2022-09-05T08:18:23.347Z,2.22
2022-09-05T08:20:55.605Z,2.58
2022-09-05T08:23:24.849Z,2.10
2022-09-05T08:26:09.537Z,2.08
2022-09-05T08:28:53.658Z,1.98
2022-09-05T08:31:21.765Z,2.40
2022-09-05T08:33:49.149Z,1.98
2022-09-05T08:36:26.622Z,2.17
2022-09-05T08:38:53.151Z,2.15
2022-09-05T08:41:19.819Z,2.03
2022-09-05T08:46:37.362Z,2.03
2022-09-05T08:46:52.798Z,2.33
2022-09-05T08:49:41.374Z,1.80
2022-09-05T08:52:29.144Z,1.77
2022-09-05T08:55:10.830Z,1.98
2022-09-05T08:58:03.221Z,1.48
2022-09-05T09:00:35.824Z,1.83
2022-09-05T09:03:06.505Z,2.17
2022-09-05T09:06:13.710Z,1.80
2022-09-05T09:08:47.496Z,1.80
2022-09-05T09:11:27.043Z,1.58
2022-09-05T09:13:53.359Z,1.60
2022-09-05T09:16:50.448Z,1.63
2022-09-05T09:19:35.639Z,1.58
2022-09-05T09:22:08.327Z,1.40
2022-09-05T09:24:40.504Z,1.30
2022-09-05T09:27:12.448Z,1.77
2022-09-05T09:29:42.806Z,1.58
2022-09-05T09:32:11.062Z,3.63
2022-09-05T09:34:49.217Z,1.73
2022-09-05T09:37:15.818Z,1.77
2022-09-05T09:40:01.896Z,1.63
2022-09-05T09:42:33.533Z,2.17
2022-09-05T09:45:28.064Z,1.90
2022-09-05T09:48:12.070Z,1.50
2022-09-05T09:50:45.026Z,1.67
2022-09-05T09:53:30.745Z,1.60
2022-09-05T09:56:26.717Z,1.63
2022-09-05T09:59:13.222Z,1.40
2022-09-05T10:01:54.873Z,1.48
2022-09-05T10:07:50.578Z,1.13
2022-09-05T10:10:38.496Z,1.30
2022-09-05T10:13:52.354Z,1.40
2022-09-05T10:16:42.963Z,1.33
2022-09-05T10:19:19.402Z,1.30
2022-09-05T10:24:40.611Z,1.80
2022-09-05T10:27:15.799Z,1.30
2022-09-05T10:30:00.532Z,1.52
2022-09-05T10:35:08.727Z,1.52
2022-09-05T10:35:42.055Z,1.33
2022-09-05T10:38:14.459Z,1.50
2022-09-05T10:41:05.131Z,1.23
2022-09-05T10:43:31.488Z,1.27
2022-09-05T10:45:57.826Z,1.50
2022-09-05T10:48:24.154Z,1.48
2022-09-05T10:50:55.223Z,1.38
2022-09-05T10:53:40.538Z,1.30
2022-09-05T10:56:09.485Z,1.40
2022-09-05T11:01:22.060Z,1.58
2022-09-05T11:02:28.223Z,1.40
2022-09-05T11:04:49.497Z,1.50
2022-09-05T11:09:49.389Z,1.40
2022-09-05T11:12:40.242Z,1.77
2022-09-05T11:15:14.353Z,1.52
2022-09-05T11:17:41.703Z,1.20
2022-09-05T11:20:35.302Z,1.40
2022-09-05T11:23:04.865Z,1.63
2022-09-05T11:25:39.806Z,1.20
2022-09-05T11:28:16.132Z,1.30
2022-09-05T11:30:46.011Z,1.63
2022-09-05T11:39:45.624Z,1.70
2022-09-05T11:39:54.099Z,1.50
2022-09-05T11:40:06.567Z,1.40
2022-09-05T11:42:01.782Z,1.58
2022-09-05T11:44:28.024Z,1.40
2022-09-05T11:47:28.178Z,1.50
2022-09-05T11:50:12.798Z,1.60
2022-09-05T11:52:40.255Z,1.40
2022-09-05T11:55:25.432Z,1.48
2022-09-05T11:57:51.697Z,1.45
2022-09-05T12:00:42.007Z,1.60
2022-09-05T12:03:56.935Z,1.65
2022-09-05T12:06:39.496Z,1.50
2022-09-05T12:09:33.900Z,1.52
2022-09-05T12:12:32.747Z,1.33
2022-09-05T12:14:56.308Z,1.60
2022-09-05T12:17:35.196Z,1.35
2022-09-05T12:20:07.727Z,1.40
2022-09-05T12:22:49.829Z,1.65
2022-09-05T12:27:39.387Z,1.38
2022-09-05T12:29:26.806Z,1.55
2022-09-05T12:32:30.541Z,1.60
2022-09-05T12:36:06.118Z,1.70
2022-09-05T12:40:56.856Z,1.60
2022-09-05T12:41:38.578Z,1.80
2022-09-05T12:44:36.867Z,1.45
2022-09-05T12:45:45.315Z,1.50
2022-09-05T12:48:14.720Z,1.38
2022-09-05T12:50:43.264Z,1.60
2022-09-05T12:53:15.838Z,1.30
2022-09-05T12:55:50.752Z,1.45
2022-09-05T13:03:02.642Z,1.50
2022-09-05T13:03:12.212Z,1.55
2022-09-05T13:04:25.513Z,1.50
2022-09-05T13:07:01.016Z,1.23
2022-09-05T13:10:39.443Z,1.30
2022-09-05T13:14:53.446Z,1.30
2022-09-05T13:15:24.346Z,1.40
2022-09-05T13:18:04.084Z,1.27
2022-09-05T13:20:36.374Z,1.27
2022-09-05T13:23:11.289Z,1.60
2022-09-05T13:25:39.524Z,1.55
2022-09-05T13:28:06.575Z,1.50
2022-09-05T13:34:07.225Z,1.35
2022-09-05T13:38:06.613Z,1.38
2022-09-05T13:38:20.930Z,1.38
2022-09-05T13:39:12.841Z,1.42
2022-09-05T13:41:44.099Z,1.50
2022-09-05T13:44:26.453Z,1.27
2022-09-05T13:47:30.162Z,1.40
2022-09-05T13:49:56.917Z,1.40
2022-09-05T13:52:38.030Z,1.10
2022-09-05T13:55:04.286Z,1.20
2022-09-05T13:57:46.349Z,1.55
2022-09-05T14:00:18.740Z,1.65
2022-09-05T14:03:39.260Z,1.35
2022-09-05T14:06:45.092Z,1.30
2022-09-05T14:09:39.325Z,1.58
2022-09-05T14:12:25.352Z,1.42
2022-09-05T14:15:09.382Z,1.40
2022-09-05T14:17:56.609Z,2.00
2022-09-05T14:20:43.593Z,1.30
2022-09-05T14:23:15.934Z,1.40
2022-09-05T14:25:44.307Z,1.35
2022-09-05T14:28:18.314Z,1.38
2022-09-05T14:35:00.755Z,1.40
2022-09-05T14:37:54.322Z,1.45
2022-09-05T14:37:55.342Z,1.40
2022-09-05T14:39:30.599Z,1.33
2022-09-05T14:42:07.877Z,1.30
2022-09-05T14:44:58.902Z,1.20
2022-09-05T14:47:47.404Z,1.40
2022-09-05T14:50:35.003Z,1.30
2022-09-05T14:57:23.129Z,1.30
2022-09-05T15:02:49.755Z,1.40
2022-09-05T15:02:52.079Z,1.33
2022-09-05T15:04:41.046Z,1.30
2022-09-05T15:07:24.332Z,1.60
2022-09-05T15:12:20.615Z,1.30
2022-09-05T15:13:00.043Z,1.40
2022-09-05T15:15:29.395Z,1.10
2022-09-05T15:17:58.525Z,1.40
2022-09-05T15:20:27.855Z,1.38
2022-09-05T15:22:57.430Z,1.30
2022-09-05T15:25:25.755Z,1.17
2022-09-05T15:27:52.279Z,1.55
2022-09-05T15:30:20.115Z,1.50
2022-09-05T15:32:50.641Z,1.30
2022-09-05T15:35:33.839Z,1.10
2022-09-05T15:38:00.083Z,1.17
2022-09-05T15:40:26.778Z,1.45
2022-09-05T15:42:57.837Z,1.35
2022-09-05T15:45:26.534Z,1.73
2022-09-05T15:48:16.049Z,1.40
2022-09-05T15:51:03.130Z,1.42
2022-09-05T15:53:34.004Z,1.35
2022-09-05T15:56:16.511Z,1.30
2022-09-05T15:58:54.145Z,1.55
2022-09-05T16:01:43.409Z,1.70
2022-09-05T16:10:30.004Z,1.50
2022-09-05T16:10:37.465Z,1.40
2022-09-05T16:10:41.774Z,1.60
2022-09-05T16:12:36.334Z,1.58
2022-09-05T16:17:36.383Z,1.55
2022-09-05T16:23:14.594Z,1.42
2022-09-05T16:23:27.781Z,1.45
2022-09-05T16:24:05.919Z,1.60
2022-09-05T16:26:41.554Z,1.40
2022-09-05T16:29:25.197Z,1.67
2022-09-05T16:32:07.629Z,1.58
2022-09-05T16:34:42.604Z,1.48
2022-09-05T16:37:16.482Z,1.42
2022-09-05T16:39:47.328Z,1.63
2022-09-05T16:42:16.612Z,1.60
2022-09-05T16:44:50.002Z,1.40
2022-09-05T16:47:29.278Z,1.50
2022-09-05T16:50:00.815Z,1.48
2022-09-05T16:52:32.291Z,1.50
2022-09-05T16:55:03.192Z,1.40
2022-09-05T16:57:31.179Z,1.33
2022-09-05T16:59:57.490Z,1.60
2022-09-05T17:02:44.019Z,1.77
2022-09-05T17:05:29.187Z,1.70
2022-09-05T17:08:04.417Z,1.60
2022-09-05T17:10:33.272Z,1.50
2022-09-05T17:13:00.409Z,1.67
2022-09-05T17:15:35.430Z,1.83
2022-09-05T17:18:20.826Z,2.13
2022-09-05T17:20:53.683Z,2.22
2022-09-05T17:26:25.010Z,1.60
2022-09-05T17:29:30.723Z,1.63
2022-09-05T17:29:42.214Z,1.50
2022-09-05T17:31:55.753Z,1.52
2022-09-05T17:34:41.791Z,1.80
2022-09-05T17:37:18.175Z,1.80
2022-09-05T17:39:56.669Z,1.60
2022-09-05T17:42:38.203Z,1.80
2022-09-05T17:45:07.733Z,1.65
2022-09-05T17:47:53.616Z,1.40
2022-09-05T17:50:33.107Z,1.92
2022-09-05T17:53:25.103Z,1.80
2022-09-05T17:55:49.148Z,1.80
2022-09-05T17:58:25.954Z,2.15
2022-09-05T18:01:16.070Z,2.17
2022-09-05T18:03:44.893Z,2.10
2022-09-05T18:06:20.008Z,2.33
2022-09-05T18:08:49.172Z,2.30
2022-09-05T18:14:14.883Z,2.05
2022-09-05T18:17:36.383Z,2.15
2022-09-05T18:19:43.818Z,2.60
2022-09-05T18:22:21.488Z,2.40
2022-09-05T18:24:54.222Z,2.47
2022-09-05T18:28:03.782Z,2.38
2022-09-05T18:30:18.382Z,2.72
2022-09-05T18:32:54.285Z,2.53
2022-09-05T18:35:41.558Z,2.45
2022-09-05T18:38:16.062Z,2.40
2022-09-05T18:40:44.403Z,2.58
2022-09-05T18:43:13.745Z,2.83
2022-09-05T18:45:52.456Z,3.30
2022-09-05T18:48:29.806Z,2.90
2022-09-05T18:51:12.867Z,2.85
2022-09-05T18:53:47.091Z,2.70
2022-09-05T18:56:21.097Z,2.70
2022-09-05T18:59:09.927Z,2.78
2022-09-05T19:01:57.738Z,3.05
2022-09-05T19:04:49.242Z,2.67
2022-09-05T19:09:57.945Z,5.65
2022-09-05T19:12:35.071Z,5.70
2022-09-05T19:15:08.558Z,5.32
2022-09-05T19:17:38.321Z,4.32
2022-09-05T19:20:33.900Z,4.00
2022-09-05T19:23:09.800Z,4.40
2022-09-05T19:25:39.223Z,4.03
2022-09-05T19:34:27.132Z,3.28
2022-09-05T19:37:05.769Z,4.47
2022-09-05T19:37:10.875Z,20.38
2022-09-05T19:37:29.437Z,4.72
2022-09-05T19:43:39.065Z,3.72
2022-09-05T19:47:39.302Z,3.70
2022-09-05T19:47:51.669Z,3.55
2022-09-05T19:48:34.383Z,3.42
2022-09-05T19:51:16.120Z,3.30
2022-09-05T19:54:01.289Z,3.25
2022-09-05T19:56:42.912Z,3.20
2022-09-05T19:59:16.642Z,3.15
2022-09-05T20:01:43.493Z,3.50
2022-09-05T20:04:16.248Z,2.97
2022-09-05T20:06:42.616Z,3.53
2022-09-05T20:09:22.206Z,3.55
2022-09-05T20:11:49.753Z,3.65
2022-09-05T20:14:17.675Z,3.47
2022-09-05T20:16:44.029Z,3.63
2022-09-05T20:19:22.891Z,3.67
2022-09-05T20:21:56.864Z,3.40
2022-09-05T20:24:24.084Z,3.08
2022-09-05T20:26:50.349Z,3.28
2022-09-05T20:29:23.614Z,3.42
2022-09-05T20:32:05.371Z,3.53
2022-09-05T20:36:26.576Z,3.53
2022-09-05T20:43:10.482Z,3.30
2022-09-05T20:43:18.292Z,2.80
2022-09-05T20:43:23.237Z,3.13
2022-09-05T20:45:44.700Z,3.05
2022-09-05T20:54:05.483Z,3.45
2022-09-05T20:54:16.806Z,3.15
2022-09-05T20:54:19.417Z,3.38
2022-09-05T20:56:48.261Z,3.50
2022-09-05T20:59:30.677Z,3.75
2022-09-05T21:01:59.906Z,3.75
2022-09-05T21:04:32.754Z,3.45
2022-09-05T21:07:10.644Z,3.83
2022-09-05T21:09:53.767Z,3.60
2022-09-05T21:12:28.023Z,3.63
2022-09-05T21:15:20.450Z,3.20
2022-09-05T21:17:53.149Z,3.30
2022-09-05T21:20:23.959Z,3.75
2022-09-05T21:22:50.777Z,3.60
2022-09-05T21:25:44.251Z,3.65
2022-09-05T21:28:22.878Z,3.25
2022-09-05T21:30:49.229Z,3.75
2022-09-05T21:33:18.760Z,3.75
2022-09-05T21:35:46.815Z,3.70
2022-09-05T21:38:14.803Z,3.58
2022-09-05T21:40:41.897Z,3.58
2022-09-05T21:46:07.308Z,3.45
2022-09-05T21:47:48.294Z,3.83
2022-09-05T21:48:43.275Z,3.58
2022-09-05T21:51:12.949Z,3.80
2022-09-05T21:59:14.714Z,3.88
2022-09-05T21:59:27.094Z,3.38
2022-09-05T22:02:06.990Z,3.65
2022-09-05T22:04:35.608Z,3.60
2022-09-05T22:07:07.810Z,3.15
2022-09-05T22:09:34.060Z,3.75
2022-09-05T22:12:06.132Z,3.45
2022-09-05T22:14:43.788Z,3.17
2022-09-05T22:17:10.312Z,3.67
2022-09-05T22:19:37.764Z,3.90
2022-09-05T22:22:07.091Z,3.90
2022-09-05T22:24:33.990Z,3.78
2022-09-05T22:27:11.073Z,3.60
2022-09-05T22:29:39.867Z,3.40
2022-09-05T22:32:06.247Z,3.65
2022-09-05T22:34:33.214Z,3.97
2022-09-05T22:36:59.438Z,3.20
2022-09-05T22:39:36.501Z,3.00
2022-09-05T22:42:07.577Z,3.90
2022-09-05T22:44:37.399Z,3.58
2022-09-05T22:47:05.517Z,3.20
2022-09-05T22:49:31.777Z,3.40
2022-09-05T22:51:58.032Z,3.20
2022-09-05T22:54:24.273Z,3.03
2022-09-05T22:56:50.546Z,3.47
2022-09-05T22:59:17.035Z,3.22
2022-09-05T23:01:43.681Z,2.83
2022-09-05T23:04:10.045Z,2.95
2022-09-05T23:06:36.398Z,3.15
2022-09-05T23:09:02.733Z,3.00
2022-09-05T23:11:29.243Z,2.90
2022-09-05T23:13:55.494Z,2.95
2022-09-05T23:16:21.738Z,2.90
2022-09-05T23:18:48.046Z,2.70
2022-09-05T23:21:17.329Z,2.88
2022-09-05T23:23:43.785Z,2.60
2022-09-05T23:26:10.875Z,2.70
2022-09-05T23:28:42.669Z,2.95
2022-09-05T23:31:10.037Z,2.90
2022-09-05T23:33:36.326Z,3.05
2022-09-05T23:36:03.943Z,2.92
2022-09-05T23:38:30.268Z,2.47
2022-09-05T23:41:00.066Z,2.53
2022-09-05T23:43:26.296Z,2.47
2022-09-05T23:45:52.590Z,2.58
2022-09-05T23:48:18.851Z,2.50
2022-09-05T23:50:45.072Z,2.75
2022-09-05T23:53:11.363Z,2.28
2022-09-05T23:55:37.602Z,2.50
2022-09-05T23:58:04.393Z,2.55
